Nearby METAR Reports

 

KMLI - Moline/Quad City, Illinois, USA
Distance from station: ENE 4mi, 7km
Updated: 05/27/2022 12:52am
Overcast
Overcast
 Wind from NW
Wind: NW 7 mph , 11 km/h
Temperature: 63°F , 17°C
Dew Point: 59°F , 15°C
Humidity: 88%
Barometer: 29.74 inHg , 1007.1 hPa
Clouds: Overcast
Visibility: 10 miles , 16 km
Cloud details: Overcast 11000 ft
2022/05/27 05:52 KMLI 270552Z AUTO 32006KT 10SM OVC110 17/15 A2974 RMK AO2 SLP069 T01720150 10206 20172 402610172 53007
KDVN - Davenport/Quad C, Iowa, USA
Distance from station: N 14mi, 22km
Updated: 05/27/2022 12:52am
Overcast
Overcast
 Wind from NNW
Wind: NNW 9 mph , 15 km/h
Temperature: 61°F , 16°C
Dew Point: 57°F , 14°C
Humidity: 88%
Barometer: 29.78 inHg , 1008.5 hPa
Clouds: Overcast
Visibility: 10 miles , 16 km
Cloud details: Overcast 600 ft
2022/05/27 05:52 KDVN 270552Z AUTO 33008KT 10SM OVC006 16/14 A2978 RMK AO2 SLP076 T01560144 10206 20156 402500156 53003
 
KMUT - Muscatine, Iowa, USA
Distance from station: W 29mi, 47km
Updated: 05/27/2022 12:55am
Overcast
Overcast
 Wind from NNW
Wind: NNW 12 mph , 19 km/h, Gust: 18 mph , 30 km/h
Temperature: 61°F , 16°C
Dew Point: 59°F , 15°C
Humidity: 94%
Barometer: 29.78 inHg , 1008.5 hPa
Clouds: Overcast
Visibility: 10 miles , 16 km
Cloud details: Partly cloudy 1700 ft
Overcast 2500 ft
2022/05/27 05:55 KMUT 270555Z AUTO 33010G16KT 10SM SCT017 OVC025 16/15 A2978 RMK AO2
KCWI - Clinton Muni, Iowa, USA
Distance from station: NNE 31mi, 50km
Updated: 05/27/2022 12:56am
Overcast
Overcast
 Wind from NNW
Wind: NNW 10 mph , 17 km/h
Temperature: 59°F , 15°C
Barometer: 29.76 inHg , 1007.8 hPa
Clouds: Overcast
Visibility: 10 miles , 16 km
Cloud details: Few Clouds 400 ft
Partly cloudy 7500 ft
Overcast 10000 ft
2022/05/27 05:56 KCWI 270556Z AUTO 34009KT 10SM FEW004 SCT075 OVC100 15/ A2976 RMK AO2 SLP078 T0150 10189 20150 402330150 55002
 
KGBG - Galesburg, Illinois, USA
Distance from station: SSE 35mi, 56km
Updated: 05/27/2022 12:55am
Light rain, Overcast
Light rain, Overcast
 Wind from calm
Wind: Calm
Temperature: 61°F , 16°C
Dew Point: 61°F , 16°C
Humidity: 100%
Barometer: 29.74 inHg , 1007.1 hPa
Summary: Light rain
Clouds: Overcast
Visibility: 10 miles , 16 km
Cloud details: Partly cloudy 7500 ft
Overcast 10000 ft
2022/05/27 05:55 KGBG 270555Z AUTO 00000KT 10SM -RA SCT075 OVC100 16/16 A2974 RMK AO2 P0003 60003 T01600160 10171 20159 402390155
KSFY - Savanna/Tritown, Illinois, USA
Distance from station: NNE 50mi, 80km
Updated: 05/27/2022 12:55am
Overcast
Overcast
 Wind from NNW
Wind: NNW 7 mph , 11 km/h
Temperature: 59°F , 15°C
Dew Point: 59°F , 15°C
Humidity: 100%
Barometer: 29.75 inHg , 1007.5 hPa
Clouds: Overcast
Visibility: 10 miles , 16 km
Cloud details: Partly cloudy 7000 ft
Overcast 10000 ft
2022/05/27 05:55 KSFY 270555Z AUTO 34006KT 10SM SCT070 OVC100 15/15 A2975 RMK AO2